createdAt,value
2023-03-01T00:01:24.692Z,-1.50
2023-03-01T00:03:52.878Z,-1.60
2023-03-01T00:06:21.423Z,-1.60
2023-03-01T00:08:49.274Z,-1.50
2023-03-01T00:11:20.064Z,-1.40
2023-03-01T00:13:49.452Z,-1.30
2023-03-01T00:16:29.582Z,-1.20
2023-03-01T00:18:58.422Z,-1.20
2023-03-01T00:21:26.520Z,-1.20
2023-03-01T00:23:54.832Z,-1.20
2023-03-01T00:26:24.277Z,-1.20
2023-03-01T00:28:52.369Z,-1.10
2023-03-01T00:31:22.242Z,-1.10
2023-03-01T00:33:49.809Z,-1.10
2023-03-01T00:36:17.740Z,-1.10
2023-03-01T00:38:47.052Z,-1.10
2023-03-01T00:41:17.846Z,-1.20
2023-03-01T00:43:46.193Z,-1.30
2023-03-01T00:46:16.277Z,-1.30
2023-03-01T00:48:43.503Z,-1.40
2023-03-01T00:51:16.680Z,-1.50
2023-03-01T00:53:44.628Z,-1.50
2023-03-01T00:56:14.305Z,-1.50
2023-03-01T00:58:41.722Z,-1.60
2023-03-01T01:01:20.544Z,-1.50
2023-03-01T01:03:53.546Z,-1.60
2023-03-01T01:06:33.937Z,-1.60
2023-03-01T01:09:01.657Z,-1.60
2023-03-01T01:11:31.220Z,-1.60
2023-03-01T01:13:59.447Z,-1.60
2023-03-01T01:16:29.192Z,-1.70
2023-03-01T01:18:58.048Z,-1.70
2023-03-01T01:21:26.408Z,-1.70
2023-03-01T01:23:54.229Z,-1.70
2023-03-01T01:26:27.279Z,-1.70
2023-03-01T01:28:55.154Z,-1.70
2023-03-01T01:31:24.957Z,-1.60
2023-03-01T01:33:53.707Z,-1.60
2023-03-01T01:36:20.944Z,-1.60
2023-03-01T01:38:48.463Z,-1.60
2023-03-01T01:41:15.863Z,-1.60
2023-03-01T01:43:48.679Z,-1.70
2023-03-01T01:46:36.091Z,-1.60
2023-03-01T01:49:33.045Z,-1.60
2023-03-01T01:52:28.735Z,-1.70
2023-03-01T01:55:04.695Z,-1.70
2023-03-01T01:57:46.096Z,-1.80
2023-03-01T02:00:25.548Z,-1.90
2023-03-01T02:02:57.770Z,-1.90
2023-03-01T02:05:55.761Z,-1.90
2023-03-01T02:08:26.718Z,-1.90
2023-03-01T02:10:55.928Z,-1.90
2023-03-01T02:13:24.195Z,-2.00
2023-03-01T02:15:51.519Z,-2.10
2023-03-01T02:18:21.339Z,-2.30
2023-03-01T02:21:10.037Z,-2.40
2023-03-01T02:23:38.117Z,-2.50
2023-03-01T02:26:30.832Z,-2.50
2023-03-01T02:28:58.844Z,-2.50
2023-03-01T02:31:44.680Z,-2.50
2023-03-01T02:34:24.103Z,-2.50
2023-03-01T02:37:07.916Z,-2.60
2023-03-01T02:39:43.201Z,-2.60
2023-03-01T02:42:17.017Z,-2.60
2023-03-01T02:44:44.305Z,-2.60
2023-03-01T02:47:11.507Z,-2.60
2023-03-01T02:49:39.300Z,-2.60
2023-03-01T02:52:30.733Z,-2.60
2023-03-01T02:55:18.506Z,-2.60
2023-03-01T02:57:47.794Z,-2.70
2023-03-01T03:00:22.900Z,-2.70
2023-03-01T03:02:54.888Z,-2.60
2023-03-01T03:05:28.265Z,-2.70
2023-03-01T03:07:56.712Z,-2.60
2023-03-01T03:10:28.020Z,-2.50
2023-03-01T03:12:58.663Z,-2.50
2023-03-01T03:15:26.469Z,-2.50
2023-03-01T03:17:54.442Z,-2.60
2023-03-01T03:20:23.667Z,-2.60
2023-03-01T03:22:54.319Z,-2.60
2023-03-01T03:25:22.469Z,-2.50
2023-03-01T03:27:50.976Z,-2.50
2023-03-01T03:30:20.292Z,-2.60
2023-03-01T03:32:54.717Z,-2.60
2023-03-01T03:35:27.715Z,-2.60
2023-03-01T03:38:03.773Z,-2.60
2023-03-01T03:40:32.444Z,-2.60
2023-03-01T03:42:59.866Z,-2.70
2023-03-01T03:45:27.221Z,-2.70
2023-03-01T03:47:54.360Z,-2.60
2023-03-01T03:50:21.707Z,-2.60
2023-03-01T03:52:48.836Z,-2.60
2023-03-01T03:55:20.473Z,-2.60
2023-03-01T03:57:55.216Z,-2.70
2023-03-01T04:00:25.085Z,-2.70
2023-03-01T04:02:53.053Z,-2.70
2023-03-01T04:05:20.578Z,-2.70
2023-03-01T04:07:47.933Z,-2.70
2023-03-01T04:10:17.856Z,-2.70
2023-03-01T04:12:45.742Z,-2.70
2023-03-01T04:15:16.441Z,-2.70
2023-03-01T04:17:45.944Z,-2.70
2023-03-01T04:20:26.274Z,-2.60
2023-03-01T04:23:14.597Z,-2.60
2023-03-01T04:25:56.506Z,-2.70
2023-03-01T04:28:39.343Z,-2.60
2023-03-01T04:31:16.894Z,-2.60
2023-03-01T04:33:46.272Z,-2.70
2023-03-01T04:36:15.878Z,-2.70
2023-03-01T04:38:48.627Z,-2.70
2023-03-01T04:41:17.840Z,-2.60
2023-03-01T04:43:46.018Z,-2.60
2023-03-01T04:46:16.618Z,-2.60
2023-03-01T04:48:45.735Z,-2.60
2023-03-01T04:51:17.294Z,-2.70
2023-03-01T04:53:45.302Z,-2.70
2023-03-01T04:56:12.720Z,-2.80
2023-03-01T04:58:40.023Z,-2.80
2023-03-01T05:01:19.371Z,-2.80
2023-03-01T05:03:52.667Z,-2.80
2023-03-01T05:06:21.350Z,-2.80
2023-03-01T05:08:48.721Z,-2.80
2023-03-01T05:11:16.138Z,-2.80
2023-03-01T05:13:43.998Z,-2.90
2023-03-01T05:16:12.921Z,-2.90
2023-03-01T05:18:41.448Z,-2.80
2023-03-01T05:21:11.477Z,-2.90
2023-03-01T05:23:39.303Z,-2.90
2023-03-01T05:26:16.260Z,-3.00
2023-03-01T05:28:53.419Z,-3.00
2023-03-01T05:31:20.918Z,-3.00
2023-03-01T05:33:48.355Z,-3.00
2023-03-01T05:36:15.802Z,-3.10
2023-03-01T05:38:43.546Z,-3.10
2023-03-01T05:41:17.225Z,-3.10
2023-03-01T05:43:46.295Z,-3.10
2023-03-01T05:46:14.644Z,-3.10
2023-03-01T05:48:42.362Z,-3.10
2023-03-01T05:51:09.529Z,-3.10
2023-03-01T05:53:37.908Z,-3.10
2023-03-01T05:56:07.357Z,-3.20
2023-03-01T05:58:34.742Z,-3.30
2023-03-01T06:01:03.038Z,-3.30
2023-03-01T06:03:30.365Z,-3.30
2023-03-01T06:05:58.702Z,-3.40
2023-03-01T06:08:27.956Z,-3.30
2023-03-01T06:10:55.354Z,-3.30
2023-03-01T06:13:23.187Z,-3.30
2023-03-01T06:15:50.806Z,-3.30
2023-03-01T06:18:17.934Z,-3.30
2023-03-01T06:20:45.310Z,-3.20
2023-03-01T06:23:15.961Z,-3.20
2023-03-01T06:25:43.154Z,-2.90
2023-03-01T06:28:10.507Z,-2.70
2023-03-01T06:30:38.158Z,-2.80
2023-03-01T06:33:05.663Z,-2.70
2023-03-01T06:35:33.462Z,-2.70
2023-03-01T06:38:02.245Z,-2.70
2023-03-01T06:40:30.724Z,-2.60
2023-03-01T06:42:58.101Z,-2.60
2023-03-01T06:45:26.007Z,-2.40
2023-03-01T06:48:02.109Z,-2.10
2023-03-01T06:50:29.274Z,-2.10
2023-03-01T06:53:00.363Z,-2.00
2023-03-01T06:55:27.670Z,-1.90
2023-03-01T06:57:59.117Z,-2.00
2023-03-01T07:00:27.773Z,-2.00
2023-03-01T07:02:55.051Z,-2.10
2023-03-01T07:05:22.498Z,-2.10
2023-03-01T07:07:49.739Z,-2.10
2023-03-01T07:10:17.295Z,-2.10
2023-03-01T07:12:44.530Z,-2.10
2023-03-01T07:15:12.189Z,-2.00
2023-03-01T07:17:39.417Z,-2.00
2023-03-01T07:20:07.095Z,-2.00
2023-03-01T07:22:34.389Z,-2.00
2023-03-01T07:25:01.698Z,-1.90
2023-03-01T07:27:28.959Z,-1.80
2023-03-01T07:29:56.213Z,-1.80
2023-03-01T07:32:23.602Z,-1.70
2023-03-01T07:34:53.298Z,-1.70
2023-03-01T07:37:20.295Z,-1.60
2023-03-01T07:39:48.676Z,-1.60
2023-03-01T07:42:16.854Z,-1.50
2023-03-01T07:44:44.199Z,-1.40
2023-03-01T07:47:11.461Z,-1.40
2023-03-01T07:49:38.693Z,-1.30
2023-03-01T07:52:05.829Z,-1.20
2023-03-01T07:54:33.134Z,-1.10
2023-03-01T07:57:00.381Z,-1.10
2023-03-01T07:59:30.276Z,-1.00
2023-03-01T08:01:58.556Z,-0.90
2023-03-01T08:04:28.845Z,-0.80
2023-03-01T08:06:56.648Z,-0.80
2023-03-01T08:09:25.045Z,-0.80
2023-03-01T08:11:52.464Z,-0.70
2023-03-01T08:14:19.882Z,-0.60
2023-03-01T08:16:49.909Z,-0.50
2023-03-01T08:19:17.094Z,-0.40
2023-03-01T08:21:44.796Z,-0.40
2023-03-01T08:24:12.143Z,-0.30
2023-03-01T08:26:39.353Z,-0.20
2023-03-01T08:29:06.761Z,-0.10
2023-03-01T08:31:36.860Z,-0.10
2023-03-01T08:34:07.662Z,0.00
2023-03-01T08:36:39.025Z,0.00
2023-03-01T08:39:07.593Z,0.10
2023-03-01T08:41:35.925Z,0.20
2023-03-01T08:44:03.649Z,0.20
2023-03-01T08:46:34.139Z,0.20
2023-03-01T08:49:01.540Z,0.20
2023-03-01T08:51:30.723Z,0.30
2023-03-01T08:53:58.917Z,0.30
2023-03-01T08:56:26.104Z,0.40
2023-03-01T08:58:53.468Z,0.50
2023-03-01T09:01:21.021Z,0.60
2023-03-01T09:03:49.136Z,0.60
2023-03-01T09:06:16.907Z,0.70
2023-03-01T09:08:47.145Z,0.80
2023-03-01T09:11:18.517Z,0.70
2023-03-01T09:13:46.890Z,0.80
2023-03-01T09:16:15.868Z,0.80
2023-03-01T09:18:43.485Z,0.80
2023-03-01T09:21:16.478Z,0.90
2023-03-01T09:23:46.135Z,1.00
2023-03-01T09:26:22.426Z,1.00
2023-03-01T09:28:51.644Z,1.00
2023-03-01T09:31:20.703Z,1.00
2023-03-01T09:33:50.110Z,1.10
2023-03-01T09:36:23.428Z,1.10
2023-03-01T09:38:51.549Z,1.20
2023-03-01T09:41:48.390Z,1.30
2023-03-01T09:44:34.628Z,1.40
2023-03-01T09:47:03.362Z,1.30
2023-03-01T09:49:34.688Z,1.40
2023-03-01T09:52:20.673Z,1.50
2023-03-01T09:54:59.492Z,1.60
2023-03-01T09:57:49.411Z,1.70
2023-03-01T10:00:19.708Z,1.70
2023-03-01T10:02:49.554Z,1.80
2023-03-01T10:05:28.963Z,1.80
2023-03-01T10:08:21.514Z,1.90
2023-03-01T10:10:50.540Z,1.90
2023-03-01T10:13:45.316Z,1.90
2023-03-01T10:16:22.011Z,2.00
2023-03-01T10:18:56.405Z,2.10
2023-03-01T10:21:24.507Z,2.30
2023-03-01T10:23:54.700Z,2.30
2023-03-01T10:26:39.913Z,2.40
2023-03-01T10:29:11.369Z,2.40
2023-03-01T10:31:50.647Z,2.50
2023-03-01T10:34:22.503Z,2.50
2023-03-01T10:36:52.890Z,2.60
2023-03-01T10:39:25.481Z,2.60
2023-03-01T10:41:59.703Z,2.60
2023-03-01T10:44:47.732Z,2.70
2023-03-01T10:47:21.905Z,2.70
2023-03-01T10:49:55.427Z,2.70
2023-03-01T10:52:28.277Z,3.00
2023-03-01T10:55:00.863Z,3.10
2023-03-01T10:57:42.895Z,3.10
2023-03-01T11:00:21.871Z,3.10
2023-03-01T11:02:51.615Z,3.20
2023-03-01T11:05:25.294Z,3.20
2023-03-01T11:07:58.363Z,3.30
2023-03-01T11:10:27.307Z,3.40
2023-03-01T11:13:06.611Z,3.40
2023-03-01T11:15:33.974Z,3.50
2023-03-01T11:18:13.848Z,3.40
2023-03-01T11:20:42.739Z,3.50
2023-03-01T11:23:15.328Z,3.60
2023-03-01T11:25:52.673Z,3.70
2023-03-01T11:28:22.695Z,3.80
2023-03-01T11:31:09.072Z,3.70
2023-03-01T11:34:07.418Z,3.80
2023-03-01T11:36:56.371Z,3.90
2023-03-01T11:39:42.841Z,4.00
2023-03-01T11:42:53.867Z,4.20
2023-03-01T11:45:24.408Z,4.30
2023-03-01T11:48:04.663Z,4.40
2023-03-01T11:50:48.461Z,4.50
2023-03-01T11:53:32.570Z,4.70
2023-03-01T11:56:02.836Z,4.90
2023-03-01T11:58:32.861Z,5.00
2023-03-01T12:01:33.629Z,5.20
2023-03-01T12:04:18.764Z,5.40
2023-03-01T12:07:17.852Z,5.60
2023-03-01T12:09:47.686Z,5.70
2023-03-01T12:12:39.111Z,5.70
2023-03-01T12:15:31.440Z,5.90
2023-03-01T12:18:07.434Z,6.10
2023-03-01T12:20:43.703Z,6.20
2023-03-01T12:23:48.085Z,6.30
2023-03-01T12:26:44.349Z,6.40
2023-03-01T12:29:41.598Z,6.50
2023-03-01T12:32:25.390Z,6.50
2023-03-01T12:35:13.823Z,6.70
2023-03-01T12:37:54.399Z,6.90
2023-03-01T12:40:39.215Z,6.90
2023-03-01T12:43:18.789Z,6.90
2023-03-01T12:46:00.283Z,7.20
2023-03-01T12:49:02.876Z,7.20
2023-03-01T12:51:33.272Z,7.30
2023-03-01T12:54:06.272Z,7.40
2023-03-01T12:56:39.001Z,7.50
2023-03-01T12:59:36.111Z,7.30
2023-03-01T13:02:47.054Z,7.60
2023-03-01T13:05:26.341Z,7.60
2023-03-01T13:08:22.745Z,7.70
2023-03-01T13:11:03.453Z,7.80
2023-03-01T13:13:31.489Z,8.10
2023-03-01T13:16:19.158Z,8.40
2023-03-01T13:18:46.970Z,8.50
2023-03-01T13:21:14.200Z,8.50
2023-03-01T13:23:41.602Z,8.60
2023-03-01T13:26:19.488Z,8.80
2023-03-01T13:28:47.272Z,8.80
2023-03-01T13:31:17.334Z,9.00
2023-03-01T13:33:48.588Z,8.90
2023-03-01T13:36:31.810Z,8.90
2023-03-01T13:39:04.441Z,8.90
2023-03-01T13:41:40.679Z,9.10
2023-03-01T13:44:27.313Z,8.90
2023-03-01T13:46:59.199Z,9.10
2023-03-01T13:49:45.244Z,9.50
2023-03-01T13:52:36.248Z,9.30
2023-03-01T13:55:08.248Z,9.30
2023-03-01T13:57:40.467Z,9.40
2023-03-01T14:00:09.043Z,9.30
2023-03-01T14:02:37.930Z,9.20
2023-03-01T14:05:05.583Z,9.30
2023-03-01T14:07:32.599Z,9.10
2023-03-01T14:10:04.928Z,9.10
2023-03-01T14:12:47.370Z,9.20
2023-03-01T14:15:24.887Z,9.10
2023-03-01T14:17:56.317Z,9.10
2023-03-01T14:20:26.937Z,9.50
2023-03-01T14:22:59.963Z,9.50
2023-03-01T14:25:29.008Z,9.50
2023-03-01T14:28:06.879Z,9.20
2023-03-01T14:30:43.664Z,9.00
2023-03-01T14:33:37.968Z,9.10
2023-03-01T14:36:06.707Z,9.20
2023-03-01T14:38:46.480Z,9.20
2023-03-01T14:41:20.118Z,9.10
2023-03-01T14:43:55.374Z,9.00
2023-03-01T14:46:45.816Z,8.90
2023-03-01T14:49:22.163Z,9.10
2023-03-01T14:52:19.088Z,9.10
2023-03-01T14:54:55.773Z,8.90
2023-03-01T14:57:27.639Z,8.80
2023-03-01T15:00:04.340Z,8.80
2023-03-01T15:02:33.380Z,8.60
2023-03-01T15:05:07.357Z,8.50
2023-03-01T15:07:42.982Z,8.50
2023-03-01T15:10:21.516Z,8.40
2023-03-01T15:12:49.012Z,8.40
2023-03-01T15:15:42.647Z,8.50
2023-03-01T15:18:20.400Z,8.50
2023-03-01T15:20:50.208Z,8.40
2023-03-01T15:23:31.484Z,8.50
2023-03-01T15:25:59.326Z,8.50
2023-03-01T15:28:33.187Z,8.30
2023-03-01T15:31:25.031Z,8.10
2023-03-01T15:33:53.383Z,8.00
2023-03-01T15:37:01.281Z,8.00
2023-03-01T15:39:55.754Z,7.90
2023-03-01T15:42:29.013Z,7.70
2023-03-01T15:45:16.717Z,7.60
2023-03-01T15:47:49.636Z,7.50
2023-03-01T15:50:28.929Z,7.40
2023-03-01T15:52:58.965Z,7.20
2023-03-01T15:55:32.009Z,7.10
2023-03-01T15:58:20.459Z,7.00
2023-03-01T16:01:00.321Z,7.00
2023-03-01T16:03:28.479Z,6.90
2023-03-01T16:05:55.987Z,6.90
2023-03-01T16:08:23.471Z,6.80
2023-03-01T16:10:52.349Z,6.70
2023-03-01T16:13:20.497Z,6.70
2023-03-01T16:15:47.955Z,6.60
2023-03-01T16:18:15.254Z,6.50
2023-03-01T16:20:42.414Z,6.40
2023-03-01T16:23:12.601Z,6.30
2023-03-01T16:25:39.814Z,6.20
2023-03-01T16:28:10.414Z,6.20
2023-03-01T16:30:39.134Z,6.10
2023-03-01T16:33:29.907Z,6.00
2023-03-01T16:35:57.515Z,5.90
2023-03-01T16:38:24.717Z,5.80
2023-03-01T16:40:53.361Z,5.70
2023-03-01T16:43:21.538Z,5.60
2023-03-01T16:45:48.794Z,5.50
2023-03-01T16:48:16.236Z,5.40
2023-03-01T16:50:43.443Z,5.40
2023-03-01T16:53:11.173Z,5.30
2023-03-01T16:55:39.237Z,5.20
2023-03-01T16:58:07.066Z,5.20
2023-03-01T17:00:34.346Z,5.10
2023-03-01T17:03:01.800Z,5.00
2023-03-01T17:05:29.120Z,4.90
2023-03-01T17:07:58.357Z,4.90
2023-03-01T17:10:25.554Z,4.80
2023-03-01T17:12:52.807Z,4.70
2023-03-01T17:15:20.135Z,4.60
2023-03-01T17:17:51.946Z,4.50
2023-03-01T17:20:19.605Z,4.40
2023-03-01T17:22:46.914Z,4.30
2023-03-01T17:25:14.584Z,4.30
2023-03-01T17:27:42.869Z,4.20
2023-03-01T17:30:11.984Z,4.10
2023-03-01T17:32:39.664Z,4.00
2023-03-01T17:35:08.307Z,3.90
2023-03-01T17:37:37.176Z,3.80
2023-03-01T17:40:04.839Z,3.80
2023-03-01T17:42:32.266Z,3.70
2023-03-01T17:45:00.913Z,3.80
2023-03-01T17:47:28.222Z,3.90
2023-03-01T17:49:56.084Z,4.00
2023-03-01T17:52:24.054Z,3.90
2023-03-01T17:54:51.531Z,3.90
2023-03-01T17:57:18.812Z,3.90
2023-03-01T17:59:46.052Z,3.90
2023-03-01T18:02:13.873Z,3.80
2023-03-01T18:04:45.529Z,3.60
2023-03-01T18:07:13.416Z,3.50
2023-03-01T18:09:41.586Z,3.50
2023-03-01T18:12:10.871Z,3.40
2023-03-01T18:14:38.381Z,3.40
2023-03-01T18:17:12.189Z,3.30
2023-03-01T18:19:41.405Z,3.30
2023-03-01T18:22:09.709Z,3.20
2023-03-01T18:24:40.624Z,3.10
2023-03-01T18:27:08.177Z,3.10
2023-03-01T18:29:38.094Z,3.00
2023-03-01T18:32:06.481Z,3.00
2023-03-01T18:34:35.134Z,3.00
2023-03-01T18:37:09.163Z,3.10
2023-03-01T18:39:37.272Z,3.10
2023-03-01T18:42:05.784Z,3.20
2023-03-01T18:44:35.425Z,3.20
2023-03-01T18:47:02.968Z,3.20
2023-03-01T18:49:30.720Z,3.00
2023-03-01T18:51:58.054Z,2.90
2023-03-01T18:54:25.746Z,2.70
2023-03-01T18:56:53.267Z,2.70
2023-03-01T18:59:20.505Z,2.70
2023-03-01T19:01:47.926Z,2.70
2023-03-01T19:04:15.453Z,2.70
2023-03-01T19:06:43.937Z,2.70
2023-03-01T19:09:11.778Z,2.60
2023-03-01T19:11:39.097Z,2.50
2023-03-01T19:14:06.503Z,2.60
2023-03-01T19:16:36.002Z,2.50
2023-03-01T19:19:06.443Z,2.50
2023-03-01T19:21:34.476Z,2.40
2023-03-01T19:24:05.397Z,2.30
2023-03-01T19:26:33.901Z,2.30
2023-03-01T19:29:03.239Z,2.30
2023-03-01T19:31:31.702Z,2.30
2023-03-01T19:34:10.559Z,2.30
2023-03-01T19:36:45.197Z,2.20
2023-03-01T19:39:14.210Z,2.10
2023-03-01T19:41:42.738Z,2.10
2023-03-01T19:44:13.790Z,2.10
2023-03-01T19:46:41.155Z,2.20
2023-03-01T19:49:08.861Z,2.10
2023-03-01T19:51:39.197Z,2.00
2023-03-01T19:54:07.170Z,2.10
2023-03-01T19:56:35.316Z,2.10
2023-03-01T19:59:04.859Z,2.00
2023-03-01T20:01:34.778Z,2.10
2023-03-01T20:04:03.602Z,2.00
2023-03-01T20:06:31.603Z,2.00
2023-03-01T20:09:02.390Z,2.00
2023-03-01T20:11:33.896Z,2.00
2023-03-01T20:14:01.397Z,2.00
2023-03-01T20:16:28.861Z,1.90
2023-03-01T20:18:57.914Z,1.90
2023-03-01T20:21:27.371Z,2.00
2023-03-01T20:23:55.368Z,2.00
2023-03-01T20:26:25.727Z,1.80
2023-03-01T20:28:57.335Z,1.80
2023-03-01T20:31:32.681Z,1.80
2023-03-01T20:34:00.646Z,1.90
2023-03-01T20:36:28.677Z,1.80
2023-03-01T20:38:56.717Z,1.80
2023-03-01T20:41:28.844Z,1.70
2023-03-01T20:43:58.777Z,1.70
2023-03-01T20:46:27.490Z,1.70
2023-03-01T20:48:57.230Z,1.70
2023-03-01T20:51:24.789Z,1.80
2023-03-01T20:53:52.802Z,1.70
2023-03-01T20:56:21.839Z,1.70
2023-03-01T20:58:49.110Z,1.70
2023-03-01T21:01:18.969Z,1.70
2023-03-01T21:03:46.240Z,1.60
2023-03-01T21:06:14.681Z,1.50
2023-03-01T21:08:41.920Z,1.40
2023-03-01T21:11:09.690Z,1.40
2023-03-01T21:13:37.189Z,1.30
2023-03-01T21:16:08.041Z,1.20
2023-03-01T21:18:37.091Z,1.10
2023-03-01T21:21:10.596Z,1.10
2023-03-01T21:23:40.010Z,1.10
2023-03-01T21:26:13.113Z,1.10
2023-03-01T21:28:41.462Z,1.10
2023-03-01T21:31:18.472Z,1.20
2023-03-01T21:33:57.711Z,1.20
2023-03-01T21:36:26.650Z,1.20
2023-03-01T21:38:54.692Z,1.20
2023-03-01T21:41:23.614Z,1.20
2023-03-01T21:43:52.850Z,1.10
2023-03-01T21:46:23.712Z,1.10
2023-03-01T21:48:52.973Z,1.10
2023-03-01T21:51:22.754Z,1.10
2023-03-01T21:53:50.999Z,1.00
2023-03-01T21:56:21.270Z,1.00
2023-03-01T21:58:49.874Z,0.90
2023-03-01T22:01:20.325Z,0.90
2023-03-01T22:03:48.219Z,0.80
2023-03-01T22:06:29.210Z,0.80
2023-03-01T22:08:59.480Z,0.70
2023-03-01T22:11:28.627Z,0.80
2023-03-01T22:13:57.136Z,0.80
2023-03-01T22:16:27.567Z,0.80
2023-03-01T22:18:55.839Z,0.90
2023-03-01T22:21:25.624Z,0.90
2023-03-01T22:23:54.453Z,1.00
2023-03-01T22:26:25.371Z,0.90
2023-03-01T22:28:55.056Z,0.80
2023-03-01T22:31:23.358Z,0.90
2023-03-01T22:33:51.648Z,0.80
2023-03-01T22:36:18.977Z,0.80
2023-03-01T22:38:46.665Z,0.80
2023-03-01T22:41:14.180Z,0.70
2023-03-01T22:43:41.515Z,0.70
2023-03-01T22:46:14.536Z,0.70
2023-03-01T22:48:41.868Z,0.80
2023-03-01T22:51:16.941Z,0.80
2023-03-01T22:53:44.958Z,0.70
2023-03-01T22:56:15.639Z,0.70
2023-03-01T22:58:43.454Z,0.60
2023-03-01T23:01:19.730Z,0.60
2023-03-01T23:03:47.759Z,0.60
2023-03-01T23:06:16.297Z,0.50
2023-03-01T23:08:44.236Z,0.50
2023-03-01T23:11:14.444Z,0.50
2023-03-01T23:13:42.117Z,0.50
2023-03-01T23:16:10.534Z,0.40
2023-03-01T23:18:38.564Z,0.30
2023-03-01T23:21:09.909Z,0.30
2023-03-01T23:23:37.401Z,0.40
2023-03-01T23:26:05.519Z,0.40
2023-03-01T23:28:33.061Z,0.40
2023-03-01T23:31:04.225Z,0.30
2023-03-01T23:33:37.812Z,0.20
2023-03-01T23:36:17.468Z,0.10
2023-03-01T23:38:45.814Z,0.10
2023-03-01T23:41:15.211Z,0.10
2023-03-01T23:43:49.684Z,0.10
2023-03-01T23:46:18.505Z,0.00
2023-03-01T23:48:45.931Z,0.00
2023-03-01T23:51:13.895Z,-0.10
2023-03-01T23:53:44.000Z,-0.10
2023-03-01T23:56:13.781Z,-0.10
2023-03-01T23:58:40.808Z,0.00
